Time;durP1;ratioP1;P1;durP2;ratioP2;P2;SDS_P1;SDS_P2;PMS_P1;PMS_P2;Temp;Humidity;BMP_temperature;BMP_pressure;BME280_temperature;BME280_humidity;BME280_pressure;Samples;Min_cycle;Max_cycle;Signal;HPM_P1;HPM_P2
2022/04/20 00:00:16;;;;;;;26.15;11.38;;;15.80;55.10;;;;;;7371731;19;19978;-76
2022/04/20 00:02:45;;;;;;;24.00;12.35;;;15.80;54.80;;;;;;7370059;19;20096;-76
2022/04/20 00:05:14;;;;;;;27.02;11.95;;;15.80;54.80;;;;;;7369505;19;20662;-76
2022/04/20 00:07:42;;;;;;;24.75;12.55;;;15.80;54.80;;;;;;7369332;19;20473;-76
2022/04/20 00:10:11;;;;;;;29.00;13.45;;;15.70;54.80;;;;;;7371637;19;20025;-76
2022/04/20 00:12:43;;;;;;;27.52;13.30;;;15.60;55.30;;;;;;7393909;19;20121;-76
2022/04/20 00:15:12;;;;;;;27.27;13.20;;;15.50;55.30;;;;;;7370140;19;20015;-75
2022/04/20 00:17:41;;;;;;;27.98;13.32;;;15.60;55.40;;;;;;7370528;19;20094;-76
2022/04/20 00:20:11;;;;;;;27.73;13.55;;;15.60;55.40;;;;;;7371715;19;20855;-75
2022/04/20 00:22:40;;;;;;;25.40;13.52;;;15.40;55.50;;;;;;7371575;19;20074;-75
2022/04/20 00:25:09;;;;;;;27.70;13.90;;;15.50;55.60;;;;;;7372095;19;20012;-75
2022/04/20 00:27:39;;;;;;;26.85;13.40;;;15.50;55.50;;;;;;7386611;19;20829;-75
2022/04/20 00:30:12;;;;;;;29.40;14.00;;;15.60;55.40;;;;;;7370618;19;20121;-75
2022/04/20 00:32:42;;;;;;;27.42;14.13;;;15.60;55.40;;;;;;7370726;19;20015;-76
2022/04/20 00:35:12;;;;;;;27.35;15.50;;;15.50;55.40;;;;;;7369922;19;20031;-75
2022/04/20 00:37:43;;;;;;;27.50;14.65;;;15.60;55.30;;;;;;7376563;19;20021;-76
2022/04/20 00:40:13;;;;;;;32.67;14.88;;;15.60;55.40;;;;;;7379359;19;20019;-76
2022/04/20 00:42:44;;;;;;;23.40;13.33;;;15.60;55.40;;;;;;7401082;19;20037;-76
2022/04/20 00:45:15;;;;;;;27.05;13.35;;;15.60;55.40;;;;;;7377170;19;20022;-75
2022/04/20 00:47:45;;;;;;;32.33;14.43;;;15.60;55.30;;;;;;7376051;19;20420;-76
2022/04/20 00:50:15;;;;;;;27.80;12.52;;;15.60;55.40;;;;;;7373671;19;20365;-75
2022/04/20 00:52:44;;;;;;;28.60;13.82;;;15.60;55.40;;;;;;7376312;19;20097;-76
2022/04/20 00:55:13;;;;;;;32.05;14.50;;;15.50;55.30;;;;;;7377115;19;20082;-77
2022/04/20 00:57:41;;;;;;;32.33;15.95;;;15.50;55.30;;;;;;7398964;19;20090;-75
2022/04/20 01:00:12;;;;;;;32.92;15.38;;;15.50;55.40;;;;;;7376990;19;20023;-75
2022/04/20 01:02:43;;;;;;;29.25;14.52;;;15.50;55.50;;;;;;7374898;19;20021;-75
2022/04/20 01:05:13;;;;;;;29.60;16.30;;;15.50;55.50;;;;;;7375992;19;20933;-75
2022/04/20 01:07:42;;;;;;;36.55;17.17;;;15.40;55.50;;;;;;7379614;19;20015;-78
2022/04/20 01:10:11;;;;;;;31.50;17.13;;;15.40;55.70;;;;;;7375634;19;20015;-75
2022/04/20 01:12:40;;;;;;;36.60;17.13;;;15.30;55.90;;;;;;7399318;19;20019;-75
2022/04/20 01:15:10;;;;;;;36.10;19.92;;;15.30;56.00;;;;;;7376479;19;20093;-77
2022/04/20 01:17:45;;;;;;;36.25;18.17;;;15.20;56.00;;;;;;7373974;19;20082;-76
2022/04/20 01:20:17;;;;;;;36.10;19.55;;;15.20;56.20;;;;;;7378144;19;20045;-77
2022/04/20 01:22:49;;;;;;;37.22;19.77;;;15.20;56.30;;;;;;7374915;19;20314;-75
2022/04/20 01:25:18;;;;;;;39.47;20.13;;;15.20;56.30;;;;;;7377571;19;20328;-75
2022/04/20 01:27:46;;;;;;;35.53;19.00;;;15.00;56.50;;;;;;7395957;19;20353;-75
2022/04/20 01:30:15;;;;;;;35.33;19.05;;;15.10;56.60;;;;;;7373248;19;20082;-75
2022/04/20 01:32:44;;;;;;;36.08;20.25;;;15.10;57.30;;;;;;7376089;19;20022;-76
2022/04/20 01:35:12;;;;;;;38.00;20.48;;;14.90;56.90;;;;;;7374393;19;20014;-75
2022/04/20 01:37:41;;;;;;;37.17;19.77;;;14.90;57.10;;;;;;7372666;19;20010;-75
2022/04/20 01:40:13;;;;;;;37.92;19.80;;;14.80;57.20;;;;;;7376010;19;20461;-76
2022/04/20 01:42:42;;;;;;;36.85;18.83;;;14.70;57.40;;;;;;7397281;19;20098;-77
2022/04/20 01:45:11;;;;;;;36.17;20.55;;;14.70;57.40;;;;;;7375746;19;20014;-76
2022/04/20 01:47:40;;;;;;;42.47;21.27;;;14.70;57.40;;;;;;7375040;19;20490;-75
2022/04/20 01:50:10;;;;;;;36.58;20.50;;;14.80;57.40;;;;;;7373727;19;20077;-75
2022/04/20 01:52:39;;;;;;;38.08;20.75;;;14.80;57.30;;;;;;7375125;19;20014;-75
2022/04/20 01:55:09;;;;;;;37.05;19.88;;;14.80;57.20;;;;;;7371803;19;20054;-75
2022/04/20 01:57:40;;;;;;;43.08;20.95;;;14.80;57.20;;;;;;7394689;19;20497;-75
2022/04/20 02:00:10;;;;;;;45.45;22.00;;;14.80;57.30;;;;;;7372777;19;20078;-75
2022/04/20 02:02:38;;;;;;;44.85;20.75;;;14.80;57.30;;;;;;7376023;19;20438;-75
2022/04/20 02:05:09;;;;;;;38.67;19.98;;;14.80;57.20;;;;;;7373966;19;20066;-76
2022/04/20 02:07:38;;;;;;;40.47;22.15;;;14.80;57.30;;;;;;7374096;19;20022;-76
2022/04/20 02:10:08;;;;;;;43.35;20.65;;;14.80;57.40;;;;;;7374594;19;20073;-76
2022/04/20 02:12:40;;;;;;;37.05;19.33;;;14.80;57.30;;;;;;7396266;19;20478;-76
2022/04/20 02:15:09;;;;;;;32.53;20.48;;;14.80;57.30;;;;;;7374652;19;20045;-76
2022/04/20 02:17:39;;;;;;;38.67;20.42;;;14.90;57.20;;;;;;7373635;19;20018;-76
2022/04/20 02:20:10;;;;;;;44.47;22.05;;;14.90;57.20;;;;;;7372779;19;20022;-75
2022/04/20 02:22:39;;;;;;;39.38;22.20;;;14.80;57.20;;;;;;7371358;19;20094;-76
2022/04/20 02:25:09;;;;;;;43.40;21.30;;;14.80;57.30;;;;;;7372288;19;20107;-76
2022/04/20 02:27:41;;;;;;;46.67;23.08;;;14.80;57.30;;;;;;7394606;19;20311;-76
2022/04/20 02:30:11;;;;;;;50.58;25.08;;;14.70;57.40;;;;;;7372419;19;20125;-76
2022/04/20 02:32:39;;;;;;;49.30;24.92;;;14.70;57.50;;;;;;7372962;19;20034;-76
2022/04/20 02:35:09;;;;;;;50.33;25.77;;;14.50;57.80;;;;;;7373635;19;20026;-76
2022/04/20 02:37:38;;;;;;;58.58;26.30;;;14.50;58.10;;;;;;7371969;19;20015;-76
2022/04/20 02:40:09;;;;;;;56.45;27.05;;;14.40;58.20;;;;;;7374187;19;20022;-76
2022/04/20 02:42:40;;;;;;;48.78;26.08;;;14.30;58.40;;;;;;7395959;19;20086;-75
2022/04/20 02:45:10;;;;;;;;;;;14.20;58.70;;;;;;7374050;19;20476;-76
2022/04/20 02:47:39;;;;;;;49.40;25.08;;;14.30;58.70;;;;;;7374107;19;19994;-76
2022/04/20 02:50:09;;;;;;;54.25;25.95;;;14.40;58.40;;;;;;7372324;19;20517;-76
2022/04/20 02:52:38;;;;;;;44.17;24.73;;;14.40;58.40;;;;;;7374231;19;20014;-76
2022/04/20 02:55:08;;;;;;;44.72;25.52;;;14.50;58.30;;;;;;7371743;19;20023;-76
2022/04/20 02:57:39;;;;;;;53.10;27.67;;;14.50;58.20;;;;;;7393482;19;20022;-76
2022/04/20 03:00:09;;;;;;;;;;;14.50;58.00;;;;;;7371095;19;20014;-75
2022/04/20 03:02:37;;;;;;;50.53;26.88;;;14.60;58.10;;;;;;7373403;19;19986;-75
2022/04/20 03:05:07;;;;;;;54.83;28.50;;;14.60;58.00;;;;;;7372759;19;20077;-75
2022/04/20 03:07:36;;;;;;;51.78;27.73;;;14.60;57.90;;;;;;7371830;19;20010;-76
2022/04/20 03:10:05;;;;;;;51.67;26.80;;;14.60;58.00;;;;;;7371896;19;20078;-75
2022/04/20 03:12:34;;;;;;;57.15;28.58;;;14.60;58.00;;;;;;7395969;19;20511;-74
2022/04/20 03:15:05;;;;;;;63.50;31.52;;;14.60;57.90;;;;;;7372288;19;20014;-77
2022/04/20 03:17:34;;;;;;;52.97;29.63;;;14.60;58.00;;;;;;7371484;19;20518;-75
2022/04/20 03:20:03;;;;;;;56.38;28.52;;;14.60;58.00;;;;;;7372016;19;20035;-75
2022/04/20 03:22:31;;;;;;;57.38;30.58;;;14.60;57.90;;;;;;7373483;19;20015;-75
2022/04/20 03:25:00;;;;;;;58.90;31.42;;;14.70;57.80;;;;;;7370417;19;20014;-77
2022/04/20 03:27:29;;;;;;;70.63;34.03;;;14.70;57.60;;;;;;7395755;19;20050;-76
2022/04/20 03:29:58;;;;;;;63.95;32.95;;;14.50;57.90;;;;;;7370851;19;20011;-77
2022/04/20 03:32:29;;;;;;;65.85;33.05;;;14.50;58.40;;;;;;7372540;19;20193;-75
2022/04/20 03:34:58;;;;;;;;;;;14.30;58.30;;;;;;7368388;19;20019;-75
2022/04/20 03:37:27;;;;;;;62.42;32.13;;;14.40;58.40;;;;;;7369457;19;20661;-75
2022/04/20 03:39:55;;;;;;;62.70;31.73;;;14.40;58.40;;;;;;7371746;19;20022;-75
2022/04/20 03:42:24;;;;;;;59.63;32.90;;;14.40;58.40;;;;;;7393630;19;20081;-75
2022/04/20 03:44:53;;;;;;;54.92;30.00;;;14.40;58.40;;;;;;7371691;19;20015;-75
2022/04/20 03:47:21;;;;;;;54.33;31.23;;;14.40;58.50;;;;;;7371492;19;20025;-75
2022/04/20 03:49:53;;;;;;;56.60;30.40;;;14.40;58.50;;;;;;7371030;19;20014;-75
2022/04/20 03:52:22;;;;;;;55.15;29.20;;;14.40;58.60;;;;;;7370251;19;20017;-75
2022/04/20 03:54:50;;;;;;;47.88;27.92;;;14.40;58.50;;;;;;7369917;19;20081;-76
2022/04/20 03:57:19;;;;;;;50.90;28.05;;;14.40;58.40;;;;;;7392291;19;20018;-77
2022/04/20 03:59:48;;;;;;;53.03;28.65;;;14.40;58.20;;;;;;7370762;19;20467;-76
2022/04/20 04:02:17;;;;;;;53.88;27.48;;;14.50;58.20;;;;;;7372700;19;20022;-76
2022/04/20 04:04:46;;;;;;;57.92;29.70;;;14.50;58.20;;;;;;7370665;19;20058;-76
2022/04/20 04:07:17;;;;;;;57.17;29.80;;;14.40;58.10;;;;;;7371887;19;20081;-76
2022/04/20 04:09:46;;;;;;;61.67;31.83;;;14.50;58.20;;;;;;7390516;19;20451;-77
2022/04/20 04:12:15;;;;;;;60.95;30.77;;;14.50;58.10;;;;;;7372204;19;20015;-76
2022/04/20 04:14:44;;;;;;;63.88;35.55;;;14.50;58.20;;;;;;7369029;19;20025;-76
2022/04/20 04:17:13;;;;;;;62.50;35.17;;;14.50;58.00;;;;;;7371542;19;20023;-76
2022/04/20 04:19:42;;;;;;;61.65;32.85;;;14.50;58.00;;;;;;7372263;19;20082;-76
2022/04/20 04:22:11;;;;;;;58.92;31.13;;;14.40;58.10;;;;;;7371961;19;20085;-76
2022/04/20 04:24:42;;;;;;;61.00;30.63;;;14.50;58.10;;;;;;7394154;19;20039;-76
2022/04/20 04:27:12;;;;;;;;;;;14.50;58.00;;;;;;7371144;19;20025;-75
2022/04/20 04:29:41;;;;;;;60.25;32.22;;;14.60;58.10;;;;;;7369108;19;19926;-75
2022/04/20 04:32:14;;;;;;;60.67;31.00;;;14.60;57.90;;;;;;7368997;19;20506;-75
2022/04/20 04:34:44;;;;;;;62.75;32.90;;;14.70;57.90;;;;;;7370379;19;20031;-75
2022/04/20 04:37:14;;;;;;;55.20;31.08;;;14.70;57.70;;;;;;7370856;19;20085;-75
2022/04/20 04:39:45;;;;;;;61.33;33.55;;;14.70;57.80;;;;;;7390070;19;20014;-75
2022/04/20 04:42:14;;;;;;;66.32;34.47;;;14.70;57.90;;;;;;7372039;19;20027;-75
2022/04/20 04:44:42;;;;;;;65.38;34.47;;;14.60;57.70;;;;;;7368566;19;20450;-76
2022/04/20 04:49:52;;;;;;;59.25;30.85;;;14.60;57.90;;;;;;7370225;19;20015;-76
2022/04/20 04:52:21;;;;;;;66.40;32.45;;;14.60;58.00;;;;;;7367102;19;20369;-75
2022/04/20 04:54:52;;;;;;;60.42;33.22;;;14.60;57.90;;;;;;7368142;19;20039;-76
2022/04/20 04:57:21;;;;;;;64.70;35.22;;;14.60;58.00;;;;;;7390501;19;20442;-75
2022/04/20 04:59:50;;;;;;;69.30;36.88;;;14.60;58.10;;;;;;7369794;19;20018;-74
2022/04/20 05:02:19;;;;;;;71.15;36.25;;;14.60;58.30;;;;;;7370885;19;20038;-74
2022/04/20 05:04:47;;;;;;;70.05;37.63;;;14.60;58.10;;;;;;7368803;19;20019;-76
2022/04/20 05:07:16;;;;;;;79.38;40.45;;;14.50;57.90;;;;;;7369200;19;20010;-78
2022/04/20 05:09:45;;;;;;;70.43;39.88;;;14.40;58.10;;;;;;7388865;19;20438;-78
2022/04/20 05:12:17;;;;;;;74.15;40.70;;;14.40;58.40;;;;;;7368215;19;20429;-78
2022/04/20 05:14:45;;;;;;;76.13;41.05;;;14.40;58.40;;;;;;7366029;19;20014;-79
2022/04/20 05:17:14;;;;;;;75.45;41.20;;;14.30;58.60;;;;;;7369679;19;20039;-77
2022/04/20 05:19:43;;;;;;;72.95;41.85;;;14.30;58.60;;;;;;7370274;19;20018;-77
2022/04/20 05:22:12;;;;;;;72.70;39.28;;;14.30;58.60;;;;;;7370423;19;20079;-78
2022/04/20 05:24:41;;;;;;;70.28;39.35;;;14.30;58.40;;;;;;7399881;19;20098;-76
2022/04/20 05:27:10;;;;;;;80.07;45.17;;;14.40;58.40;;;;;;7375138;19;20027;-77
2022/04/20 05:29:41;;;;;;;75.47;41.20;;;14.40;58.30;;;;;;7375380;19;20367;-74
2022/04/20 05:32:11;;;;;;;79.13;42.15;;;14.30;58.50;;;;;;7375352;19;20086;-75
2022/04/20 05:34:41;;;;;;;78.32;42.10;;;14.40;58.60;;;;;;7376532;19;20719;-76
2022/04/20 05:42:32;;;;;;;71.38;40.17;;;14.40;58.50;;;;;;7397113;19;20327;-75
2022/04/20 05:45:04;;;;;;;79.65;43.63;;;14.50;58.60;;;;;;7376288;19;20018;-76
2022/04/20 05:47:33;;;;;;;80.13;41.33;;;14.40;58.40;;;;;;7374810;19;20051;-75
2022/04/20 05:50:02;;;;;;;72.68;40.63;;;14.40;58.50;;;;;;7375202;19;20438;-78
2022/04/20 05:52:31;;;;;;;72.82;37.97;;;14.50;58.40;;;;;;7373957;19;20455;-77
2022/04/20 05:54:59;;;;;;;74.38;41.60;;;14.50;58.40;;;;;;7375114;19;20035;-77
2022/04/20 05:57:28;;;;;;;72.15;41.35;;;14.30;58.70;;;;;;7391113;19;20023;-75
2022/04/20 05:59:57;;;;;;;77.72;42.60;;;14.30;58.70;;;;;;7371753;19;20025;-77
2022/04/20 06:02:29;;;;;;;81.95;41.03;;;14.20;58.90;;;;;;7371890;19;20098;-76
2022/04/20 06:04:57;;;;;;;65.88;38.50;;;14.20;58.80;;;;;;7373123;19;20018;-76
2022/04/20 06:07:26;;;;;;;72.18;41.25;;;14.30;58.70;;;;;;7370746;19;20468;-77
2022/04/20 06:09:55;;;;;;;77.03;40.15;;;14.30;58.70;;;;;;7370308;19;20026;-77
2022/04/20 06:12:23;;;;;;;73.22;40.83;;;14.40;58.60;;;;;;7395921;19;20098;-76
2022/04/20 06:14:52;;;;;;;73.57;39.83;;;14.40;58.50;;;;;;7367577;19;20015;-76
2022/04/20 06:17:21;;;;;;;75.97;40.20;;;14.40;58.30;;;;;;7372232;19;20044;-76
2022/04/20 06:19:52;;;;;;;75.78;41.03;;;14.40;58.30;;;;;;7368208;19;20018;-76
2022/04/20 06:22:21;;;;;;;72.03;40.45;;;14.40;58.30;;;;;;7371614;19;20636;-76
2022/04/20 06:24:49;;;;;;;72.97;40.55;;;14.40;58.20;;;;;;7379476;19;20062;-76
2022/04/20 06:27:18;;;;;;;76.07;41.60;;;14.50;58.30;;;;;;7393448;19;20090;-76
2022/04/20 06:29:47;;;;;;;74.13;40.22;;;14.50;58.20;;;;;;7371854;19;20018;-76
2022/04/20 06:32:17;;;;;;;74.05;39.22;;;14.60;58.20;;;;;;7372074;19;20018;-77
2022/04/20 06:34:46;;;;;;;70.75;38.97;;;14.70;58.00;;;;;;7370853;19;20010;-76
2022/04/20 06:37:19;;;;;;;73.30;39.90;;;14.80;57.80;;;;;;7375281;19;20093;-76
2022/04/20 06:39:49;;;;;;;72.95;39.80;;;14.60;57.60;;;;;;7393665;19;20024;-77
2022/04/20 06:42:18;;;;;;;96.95;51.65;;;14.50;57.50;;;;;;7396730;19;20025;-76
2022/04/20 06:44:47;;;;;;;73.53;39.67;;;14.60;57.70;;;;;;7371840;19;20038;-77
2022/04/20 06:47:15;;;;;;;72.97;39.58;;;14.70;57.50;;;;;;7373516;19;20014;-76
2022/04/20 06:49:44;;;;;;;71.95;39.17;;;14.80;57.30;;;;;;7370123;19;20011;-77
2022/04/20 07:00:19;;;;;;;70.65;39.58;;;15.00;56.70;;;;;;7366957;19;20026;-75
2022/04/20 07:02:48;;;;;;;78.60;45.13;;;15.10;57.00;;;;;;7368357;19;20014;-75
2022/04/20 07:05:17;;;;;;;70.65;37.00;;;15.20;56.80;;;;;;7372234;19;20082;-75
2022/04/20 07:07:45;;;;;;;64.28;36.58;;;15.20;56.30;;;;;;7371878;19;20361;-75
2022/04/20 07:10:17;;;;;;;67.47;37.70;;;15.30;56.30;;;;;;7367957;19;20422;-75
2022/04/20 07:12:45;;;;;;;72.07;36.25;;;15.40;56.40;;;;;;7391865;19;20035;-75
2022/04/20 07:15:14;;;;;;;68.25;37.72;;;15.50;56.40;;;;;;7370009;19;20073;-75
2022/04/20 07:17:43;;;;;;;70.88;38.08;;;15.60;56.20;;;;;;7368459;19;20044;-75
2022/04/20 07:20:17;;;;;;;69.00;37.65;;;15.70;55.80;;;;;;7367452;19;20039;-75
2022/04/20 07:22:46;;;;;;;66.32;35.72;;;15.70;55.50;;;;;;7368091;19;20022;-75
2022/04/20 07:25:18;;;;;;;72.90;37.35;;;15.70;55.40;;;;;;7368159;19;20043;-76
2022/04/20 07:27:48;;;;;;;64.28;36.20;;;15.70;55.50;;;;;;7392168;19;20685;-75
2022/04/20 07:30:17;;;;;;;65.28;35.25;;;15.70;55.30;;;;;;7367293;19;20039;-76
2022/04/20 07:32:47;;;;;;;65.53;34.42;;;15.70;55.30;;;;;;7368043;19;20089;-76
2022/04/20 07:35:15;;;;;;;64.55;34.50;;;15.80;55.30;;;;;;7368569;19;20033;-75
2022/04/20 07:37:44;;;;;;;66.70;35.75;;;15.90;55.20;;;;;;7367686;19;20450;-75
2022/04/20 07:40:17;;;;;;;61.78;34.33;;;15.90;55.00;;;;;;7369610;19;20484;-76
2022/04/20 07:42:45;;;;;;;61.33;34.20;;;15.80;55.20;;;;;;7389568;19;20053;-76
2022/04/20 07:45:15;;;;;;;67.80;33.75;;;15.90;55.10;;;;;;7365938;19;20049;-74
2022/04/20 07:47:44;;;;;;;58.85;33.53;;;16.00;54.70;;;;;;7368507;19;20337;-74
2022/04/20 07:50:23;;;;;;;72.55;33.85;;;16.10;54.70;;;;;;7368205;19;20026;-73
2022/04/20 07:52:55;;;;;;;58.67;33.40;;;16.10;54.70;;;;;;7368393;19;20029;-74
2022/04/20 07:55:28;;;;;;;63.42;34.15;;;16.20;54.70;;;;;;7366644;19;20086;-75
2022/04/20 07:57:58;;;;;;;61.05;32.17;;;16.20;54.70;;;;;;7364459;19;20113;-75
2022/04/20 08:00:28;;;;;;;53.05;29.92;;;16.30;54.40;;;;;;7385708;19;20168;-74
2022/04/20 08:03:10;;;;;;;49.45;29.88;;;16.40;54.00;;;;;;7368571;19;20343;-75
2022/04/20 08:05:39;;;;;;;64.10;34.45;;;16.40;52.90;;;;;;7366654;19;20025;-75
2022/04/20 08:08:09;;;;;;;51.17;29.52;;;16.60;53.00;;;;;;7368128;19;20021;-75
2022/04/20 08:10:41;;;;;;;55.30;29.77;;;16.70;52.90;;;;;;7366302;19;20803;-74
2022/04/20 08:15:50;;;;;;;55.50;27.38;;;16.90;51.80;;;;;;7368488;19;20402;-75
2022/04/20 08:18:19;;;;;;;55.45;27.85;;;16.90;51.60;;;;;;7387470;19;20468;-76
2022/04/20 08:20:48;;;;;;;51.88;26.63;;;16.90;51.00;;;;;;7367244;19;20014;-74
2022/04/20 08:23:17;;;;;;;42.90;23.63;;;17.00;50.50;;;;;;7367850;19;20094;-75
2022/04/20 08:25:49;;;;;;;46.35;25.30;;;17.00;50.20;;;;;;7366235;19;20086;-75
2022/04/20 08:28:18;;;;;;;34.55;19.65;;;17.00;50.20;;;;;;7366637;19;20048;-76
2022/04/20 08:30:47;;;;;;;37.42;18.70;;;17.10;50.30;;;;;;7390194;19;20022;-76
2022/04/20 08:33:15;;;;;;;32.40;18.58;;;17.10;50.20;;;;;;7367304;19;20015;-76
2022/04/20 08:35:48;;;;;;;33.38;18.67;;;17.20;50.00;;;;;;7366719;19;20023;-76
2022/04/20 08:38:17;;;;;;;32.95;18.85;;;17.20;48.60;;;;;;7365738;19;20019;-76
2022/04/20 08:40:49;;;;;;;37.55;20.40;;;17.30;48.90;;;;;;7369013;19;20036;-76
2022/04/20 08:43:18;;;;;;;30.73;18.02;;;17.30;49.00;;;;;;7368726;19;20026;-76
2022/04/20 08:45:49;;;;;;;30.45;18.48;;;17.30;48.90;;;;;;7391833;19;20015;-76
2022/04/20 08:48:18;;;;;;;31.52;19.00;;;17.40;48.40;;;;;;7367895;19;20010;-76
2022/04/20 08:50:48;;;;;;;26.92;15.60;;;17.40;48.50;;;;;;7367911;19;20108;-76
2022/04/20 08:53:18;;;;;;;24.92;13.13;;;17.50;48.30;;;;;;7369102;19;20014;-75
2022/04/20 08:57:15;;;;;;;20.17;12.32;;;17.50;47.50;;;;;;7365908;19;20010;-76
2022/04/20 08:58:38;;;;;;;;;;;17.60;47.40;;;;;;7376176;19;20026;-76
2022/04/20 09:01:07;;;;;;;24.55;13.23;;;17.70;47.30;;;;;;7376230;19;19923;-75
2022/04/20 09:03:37;;;;;;;27.40;13.88;;;17.80;47.50;;;;;;7395613;19;20090;-76
2022/04/20 09:06:06;;;;;;;26.42;12.85;;;17.90;47.20;;;;;;7376317;19;20090;-76
2022/04/20 09:08:37;;;;;;;23.88;12.13;;;17.90;46.50;;;;;;7376229;19;20105;-77
2022/04/20 09:11:09;;;;;;;23.92;12.27;;;17.90;46.70;;;;;;7369351;19;20022;-74
2022/04/20 09:13:41;;;;;;;21.15;13.07;;;18.00;46.80;;;;;;7376729;19;20014;-75
2022/04/20 09:16:12;;;;;;;20.80;12.98;;;18.00;47.30;;;;;;7372272;19;20004;-75
2022/04/20 09:18:43;;;;;;;24.67;13.88;;;18.10;47.00;;;;;;7397140;19;20033;-75
2022/04/20 09:21:15;;;;;;;24.42;15.18;;;18.10;46.60;;;;;;7373452;19;20447;-75
2022/04/20 09:23:44;;;;;;;27.23;13.90;;;18.10;46.40;;;;;;7375370;19;20040;-75
2022/04/20 09:26:17;;;;;;;22.85;12.23;;;18.10;46.50;;;;;;7375591;19;20070;-77
2022/04/20 09:29:06;;;;;;;22.05;12.57;;;18.10;46.40;;;;;;7375539;19;20017;-75
2022/04/20 09:31:44;;;;;;;26.90;13.10;;;18.10;46.80;;;;;;7374554;19;20074;-78
2022/04/20 09:34:53;;;;;;;20.38;11.30;;;18.10;46.50;;;;;;7370857;19;20014;-76
2022/04/20 09:37:24;;;;;;;17.73;10.98;;;18.10;45.90;;;;;;7369058;19;20056;-77
2022/04/20 09:39:53;;;;;;;20.97;11.10;;;18.20;46.80;;;;;;7370145;19;20581;-77
2022/04/20 09:42:25;;;;;;;20.23;10.40;;;18.20;45.80;;;;;;7394071;19;20336;-78
2022/04/20 09:44:59;;;;;;;20.08;10.90;;;18.20;45.90;;;;;;7371334;19;20039;-77
2022/04/20 09:50:13;;;;;;;19.33;11.13;;;18.30;45.10;;;;;;7372929;19;20015;-76
2022/04/20 09:52:44;;;;;;;20.83;10.77;;;18.30;45.40;;;;;;7369651;19;20021;-76
2022/04/20 09:55:15;;;;;;;23.50;11.82;;;18.30;45.80;;;;;;7367133;19;20703;-77
2022/04/20 09:57:46;;;;;;;20.03;11.17;;;18.40;45.10;;;;;;7392205;19;20014;-77
2022/04/20 10:00:16;;;;;;;20.52;11.13;;;18.40;45.20;;;;;;7372225;19;20023;-76
2022/04/20 10:02:49;;;;;;;18.73;10.57;;;18.40;46.20;;;;;;7374093;19;20664;-76
2022/04/20 10:05:20;;;;;;;27.75;12.57;;;18.40;45.20;;;;;;7372155;19;20014;-77
2022/04/20 10:07:49;;;;;;;19.05;11.43;;;18.40;45.20;;;;;;7373338;19;20011;-76
2022/04/20 10:10:17;;;;;;;25.65;12.70;;;18.50;45.70;;;;;;7373081;19;20021;-77
2022/04/20 10:12:54;;;;;;;23.83;12.02;;;18.50;45.00;;;;;;7391489;19;20043;-77
2022/04/20 10:18:07;;;;;;;23.90;11.80;;;18.60;44.40;;;;;;7373312;19;20386;-77
2022/04/20 10:20:37;;;;;;;22.13;11.85;;;18.60;44.80;;;;;;7374884;19;20018;-78
2022/04/20 10:23:07;;;;;;;24.25;12.13;;;18.60;44.80;;;;;;7373017;19;20026;-77
2022/04/20 10:25:36;;;;;;;21.10;10.88;;;18.60;44.70;;;;;;7373614;19;20029;-77
2022/04/20 10:28:19;;;;;;;20.98;11.27;;;18.60;44.40;;;;;;7369443;19;20458;-77
2022/04/20 10:30:58;;;;;;;22.33;11.18;;;18.70;45.10;;;;;;7392864;19;20018;-77
2022/04/20 10:33:29;;;;;;;20.17;10.93;;;18.70;45.10;;;;;;7371171;19;20018;-78
2022/04/20 10:36:04;;;;;;;14.55;9.30;;;18.80;45.20;;;;;;7374867;19;20150;-77
2022/04/20 10:38:34;;;;;;;18.45;9.38;;;18.80;45.00;;;;;;7374075;19;20477;-77
2022/04/20 10:41:08;;;;;;;24.48;9.65;;;18.90;45.30;;;;;;7370520;19;20038;-77
2022/04/20 10:43:42;;;;;;;17.33;9.43;;;18.90;44.70;;;;;;7373297;19;20010;-77
2022/04/20 10:46:14;;;;;;;18.98;8.90;;;18.90;44.70;;;;;;7370246;19;22087;-77
2022/04/20 10:48:55;;;;;;;19.52;9.60;;;19.00;44.60;;;;;;7395014;19;20020;-77
2022/04/20 10:51:26;;;;;;;16.67;8.93;;;19.00;44.80;;;;;;7371251;19;20018;-77
2022/04/20 10:53:55;;;;;;;22.30;9.48;;;19.10;45.00;;;;;;7372617;19;20018;-77
2022/04/20 10:56:24;;;;;;;15.93;9.60;;;19.20;45.00;;;;;;7372099;19;20050;-77
2022/04/20 10:59:14;;;;;;;20.25;9.48;;;19.20;44.60;;;;;;7371707;19;20025;-77
2022/04/20 11:02:11;;;;;;;15.60;8.88;;;19.30;44.90;;;;;;7370256;19;20018;-77
2022/04/20 11:04:46;;;;;;;21.15;9.38;;;19.30;44.80;;;;;;7372375;19;20031;-77
2022/04/20 11:07:26;;;;;;;15.23;9.07;;;19.40;44.80;;;;;;7371880;19;20053;-77
2022/04/20 11:10:14;;;;;;;14.25;8.38;;;19.50;44.20;;;;;;7370649;19;20025;-77
2022/04/20 11:18:46;;;;;;;;;;;19.50;44.90;;;;;;7367947;19;20138;-77
2022/04/20 11:21:16;;;;;;;17.50;8.90;;;19.60;45.00;;;;;;7366510;19;19990;-77
2022/04/20 11:23:53;;;;;;;15.40;7.63;;;19.70;45.00;;;;;;7371897;19;20014;-77
2022/04/20 11:26:24;;;;;;;19.23;8.27;;;19.70;44.20;;;;;;7369845;19;20082;-77
2022/04/20 11:28:54;;;;;;;12.75;8.68;;;19.80;43.80;;;;;;7371006;19;20645;-78
2022/04/20 11:31:29;;;;;;;10.07;7.45;;;19.90;44.90;;;;;;7370380;19;20054;-77
2022/04/20 11:34:02;;;;;;;8.30;4.03;;;19.90;45.00;;;;;;7369213;19;20029;-76
2022/04/20 11:36:31;;;;;;;13.55;3.50;;;20.00;42.30;;;;;;7392221;19;20025;-78
2022/04/20 11:39:00;;;;;;;8.13;3.67;;;20.10;41.30;;;;;;7364836;19;20019;-79
2022/04/20 11:41:29;;;;;;;10.95;5.45;;;20.10;41.50;;;;;;7369800;19;20085;-77
2022/04/20 11:43:59;;;;;;;10.70;4.70;;;20.20;41.40;;;;;;7367062;19;20018;-76
2022/04/20 11:46:31;;;;;;;18.10;4.07;;;20.30;42.00;;;;;;7368111;19;20085;-78
2022/04/20 11:49:02;;;;;;;17.58;7.57;;;20.30;41.40;;;;;;7367934;19;20033;-77
2022/04/20 11:51:32;;;;;;;14.63;5.68;;;20.40;41.30;;;;;;7389935;19;20458;-76
2022/04/20 11:54:00;;;;;;;10.23;5.55;;;20.40;41.60;;;;;;7369553;19;20022;-75
2022/04/20 11:56:40;;;;;;;9.00;3.83;;;20.50;42.40;;;;;;7367176;19;20036;-76
2022/04/20 11:59:10;;;;;;;5.70;3.47;;;20.50;41.40;;;;;;7367164;19;20038;-77
2022/04/20 12:01:42;;;;;;;7.07;4.27;;;20.50;41.30;;;;;;7367702;19;20041;-76
2022/04/20 12:04:15;;;;;;;8.95;3.65;;;20.50;41.10;;;;;;7370340;19;20327;-76
2022/04/20 12:06:49;;;;;;;11.45;4.07;;;20.50;40.60;;;;;;7388278;19;20653;-76
2022/04/20 12:09:18;;;;;;;5.85;3.50;;;20.60;40.60;;;;;;7368334;19;20453;-76
2022/04/20 12:11:47;;;;;;;10.32;5.43;;;20.60;40.90;;;;;;7365764;19;20023;-76
2022/04/20 12:14:17;;;;;;;7.53;5.68;;;20.70;40.10;;;;;;7367583;19;20331;-76
2022/04/20 12:16:48;;;;;;;5.75;3.50;;;20.80;40.10;;;;;;7368797;19;20028;-76
2022/04/20 12:19:18;;;;;;;6.45;3.05;;;20.80;39.70;;;;;;7369093;19;20118;-76
2022/04/20 12:21:47;;;;;;;4.88;3.00;;;20.90;38.90;;;;;;7389897;19;20322;-76
2022/04/20 12:24:24;;;;;;;8.25;3.30;;;20.90;39.30;;;;;;7371012;19;20011;-76
2022/04/20 12:26:54;;;;;;;7.22;2.97;;;21.10;40.10;;;;;;7366459;19;20037;-77
2022/04/20 12:29:24;;;;;;;8.57;3.30;;;21.10;40.00;;;;;;7368066;19;20048;-77
2022/04/20 12:31:57;;;;;;;5.53;2.67;;;21.20;38.50;;;;;;7370880;19;20081;-76
2022/04/20 12:34:28;;;;;;;7.15;2.83;;;21.20;38.00;;;;;;7373374;19;20248;-77
2022/04/20 12:37:03;;;;;;;3.88;2.13;;;21.30;38.60;;;;;;7375350;19;20026;-77
2022/04/20 12:39:34;;;;;;;3.25;2.40;;;21.30;38.90;;;;;;7395989;19;20102;-76
2022/04/20 12:42:04;;;;;;;;;;;21.30;38.60;;;;;;7376094;19;20018;-76
2022/04/20 12:44:51;;;;;;;4.75;2.40;;;21.50;38.30;;;;;;7375010;19;19974;-76
2022/04/20 12:47:42;;;;;;;9.68;2.42;;;21.50;37.80;;;;;;7377962;19;20462;-76
2022/04/20 12:50:22;;;;;;;6.55;2.28;;;21.50;37.20;;;;;;7374082;19;20023;-76
2022/04/20 12:53:12;;;;;;;4.70;2.30;;;21.40;36.60;;;;;;7373554;19;20040;-77
2022/04/20 12:55:43;;;;;;;12.50;2.35;;;21.50;36.90;;;;;;7376780;19;20014;-77
2022/04/20 13:03:42;;;;;;;4.25;2.83;;;21.90;36.90;;;;;;7397949;19;20378;-76
2022/04/20 13:06:14;;;;;;;4.93;2.90;;;21.90;35.90;;;;;;7372870;19;20748;-76
2022/04/20 13:08:48;;;;;;;10.52;2.35;;;22.00;36.20;;;;;;7373575;19;20011;-76
2022/04/20 13:11:19;;;;;;;6.50;2.50;;;21.90;35.20;;;;;;7376818;19;20015;-76
2022/04/20 13:13:48;;;;;;;6.10;2.35;;;22.00;35.00;;;;;;7373603;19;20017;-76
2022/04/20 13:16:16;;;;;;;10.43;2.50;;;22.00;35.40;;;;;;7375755;19;20035;-77
2022/04/20 13:18:48;;;;;;;8.02;2.15;;;21.90;33.30;;;;;;7398352;19;20506;-76
2022/04/20 13:21:17;;;;;;;4.63;2.08;;;21.80;34.30;;;;;;7375147;19;20018;-76
2022/04/20 13:23:47;;;;;;;4.78;2.17;;;21.90;34.50;;;;;;7376668;19;20397;-76
2022/04/20 13:28:57;;;;;;;1.80;1.48;;;21.90;33.60;;;;;;7371985;19;20953;-76